Weather at Los Angeles International Airport

Public forecast

Using degrees Fahrenheit for public forecast. Weather courtesy of forecast.io.

Current aviation weather report (METAR) for Los Angeles International Airport

Retrieved 2021/10/22 06:53 UTC (18 minutes ago):

KLAX 220653Z 17003KT 1 1/2SM BR VV003 15/14 A3006 RMK AO2 SLP176 VIS E 2 VIS W 1/2 CIG 002V004 T01500144

Aviation forecast (TAF) for Los Angeles International Airport

Retrieved 2021/10/22 06:24 UTC (47 minutes ago):

TAF KLAX 220523Z 2206/2312 25008KT 2SM BR OVC004 FM220900 VRB03KT 1SM BR VCFG OVC003 FM221300 VRB03KT 3SM BR BKN006 FM221900 26005KT P6SM SCT008 SCT250 FM222300 27012KT P6SM SCT250 FM230200 27006KT P6SM OVC012 FM230500 VRB03KT 4SM BR OVC006